Time,TemperatureF,DewpointF,PressureIn,WindDirection,WindDirectionDegrees,WindSpeedMPH,WindSpeedGustMPH,Humidity,HourlyPrecipIn,Conditions,Clouds,dailyrainin,SoftwareType,DateUTC
2013-08-30 00:00:00,63.0,63.0,29.97,NW,316,0.0,0.0,100,0.00,,---,0.00,VWS V14.01,2013-08-30 04:00:00,
2013-08-30 00:01:00,61.9,61.9,29.97,NW,316,0.0,0.0,100,0.00,,---,0.00,VWS V14.01,2013-08-30 04:01:00,
2013-08-30 00:05:00,62.8,62.8,29.97,NW,315,0.0,0.0,100,0.00,,---,0.00,VWS V14.01,2013-08-30 04:05:00,
2013-08-30 00:06:00,61.9,61.9,29.97,NW,316,0.0,0.0,100,0.00,,---,0.00,VWS V14.01,2013-08-30 04:06:00,
2013-08-30 00:10:00,61.9,61.9,29.97,NW,316,0.0,0.0,100,0.00,,---,0.00,VWS V14.01,2013-08-30 04:10:00,
2013-08-30 00:11:00,61.7,61.7,29.97,NW,316,0.0,0.0,100,0.00,,---,0.00,VWS V14.01,2013-08-30 04:11:00,
2013-08-30 00:15:00,61.5,61.5,29.97,NW,316,0.0,0.0,100,0.00,,---,0.00,VWS V14.01,2013-08-30 04:15:00,
2013-08-30 00:16:00,61.9,61.9,29.97,NW,316,0.0,0.0,100,0.00,,---,0.00,VWS V14.01,2013-08-30 04:16:00,
2013-08-30 00:20:00,61.9,61.9,29.97,NW,316,0.0,0.0,100,0.00,,---,0.00,VWS V14.01,2013-08-30 04:20:00,
2013-08-30 00:21:00,61.9,61.9,29.97,NW,316,0.0,0.0,100,0.00,,---,0.00,VWS V14.01,2013-08-30 04:21:00,
2013-08-30 00:25:00,62.8,62.8,29.97,NW,316,0.0,0.0,100,0.00,,---,0.00,VWS V14.01,2013-08-30 04:25:00,
2013-08-30 00:30:00,62.1,62.1,29.97,NW,315,0.0,0.0,100,0.00,,---,0.00,VWS V14.01,2013-08-30 04:30:00,
2013-08-30 00:31:00,61.9,61.9,29.97,NW,311,2.7,4.5,100,0.00,,---,0.00,VWS V14.01,2013-08-30 04:31:00,
2013-08-30 00:35:00,62.2,62.2,29.97,NW,316,0.0,0.0,100,0.00,,---,0.00,VWS V14.01,2013-08-30 04:35:00,
2013-08-30 00:36:00,61.7,61.7,29.97,NW,311,2.7,3.6,100,0.00,,---,0.00,VWS V14.01,2013-08-30 04:36:00,
2013-08-30 00:40:00,62.2,62.2,29.97,NW,316,0.0,0.0,100,0.00,,---,0.00,VWS V14.01,2013-08-30 04:40:00,
2013-08-30 00:41:00,61.5,61.5,29.97,NW,311,0.0,3.1,100,0.00,,---,0.00,VWS V14.01,2013-08-30 04:41:00,
2013-08-30 00:45:00,62.4,62.4,29.97,NW,316,0.0,0.0,100,0.00,,---,0.00,VWS V14.01,2013-08-30 04:45:00,
2013-08-30 00:46:00,61.0,61.0,29.97,NW,312,0.0,0.0,100,0.00,,---,0.00,VWS V14.01,2013-08-30 04:46:00,
2013-08-30 00:50:00,62.2,62.2,29.97,NW,316,0.0,0.0,100,0.00,,---,0.00,VWS V14.01,2013-08-30 04:50:00,
2013-08-30 00:51:00,61.0,61.0,29.97,NW,311,0.0,0.0,100,0.00,,---,0.00,VWS V14.01,2013-08-30 04:51:00,
2013-08-30 00:55:00,62.1,62.1,29.97,NW,315,0.0,0.0,100,0.00,,---,0.00,VWS V14.01,2013-08-30 04:55:00,
2013-08-30 00:56:00,60.8,60.8,29.97,NW,311,0.0,0.0,100,0.00,,---,0.00,VWS V14.01,2013-08-30 04:56:00,
2013-08-30 01:00:00,61.9,61.9,29.97,NW,316,0.0,0.0,100,0.00,,---,0.00,VWS V14.01,2013-08-30 05:00:00,
2013-08-30 01:01:00,61.0,61.0,29.97,NW,311,0.0,0.0,100,0.00,,---,0.00,VWS V14.01,2013-08-30 05:01:00,
2013-08-30 01:05:00,61.9,61.9,29.97,NW,316,0.0,0.0,100,0.00,,---,0.00,VWS V14.01,2013-08-30 05:05:00,
2013-08-30 01:10:00,61.7,61.7,29.97,NW,316,0.0,0.0,100,0.00,,---,0.00,VWS V14.01,2013-08-30 05:10:00,
2013-08-30 01:11:00,60.6,60.6,29.97,WSW,252,0.0,0.0,100,0.00,,---,0.00,VWS V14.01,2013-08-30 05:11:00,
2013-08-30 01:15:00,61.9,61.9,29.97,NW,316,0.0,0.0,100,0.00,,---,0.00,VWS V14.01,2013-08-30 05:15:00,
2013-08-30 01:16:00,60.3,60.3,29.97,WSW,247,0.0,0.0,100,0.00,,---,0.00,VWS V14.01,2013-08-30 05:16:00,
2013-08-30 01:20:00,61.9,61.9,29.97,NW,316,0.0,0.0,100,0.00,,---,0.00,VWS V14.01,2013-08-30 05:20:00,
2013-08-30 01:21:00,60.1,60.1,29.97,WSW,252,3.1,3.6,100,0.00,,---,0.00,VWS V14.01,2013-08-30 05:21:00,
2013-08-30 01:25:00,61.9,61.9,29.97,NW,315,2.2,4.0,100,0.00,,---,0.00,VWS V14.01,2013-08-30 05:25:00,
2013-08-30 01:26:00,61.2,61.2,29.97,SW,214,5.4,5.8,100,0.00,,---,0.00,VWS V14.01,2013-08-30 05:26:00,
2013-08-30 01:30:00,61.9,61.9,29.97,NW,311,2.7,4.5,100,0.00,,---,0.00,VWS V14.01,2013-08-30 05:30:00,
2013-08-30 01:35:00,61.7,61.7,29.97,NW,311,2.7,3.6,100,0.00,,---,0.00,VWS V14.01,2013-08-30 05:35:00,
2013-08-30 01:36:00,61.2,61.2,29.97,SW,214,3.1,3.6,100,0.00,,---,0.00,VWS V14.01,2013-08-30 05:36:00,
2013-08-30 01:40:00,61.5,61.5,29.97,NW,311,0.0,3.1,100,0.00,,---,0.00,VWS V14.01,2013-08-30 05:40:00,
2013-08-30 01:41:00,61.3,61.3,29.97,SSW,212,3.6,4.0,100,0.00,,---,0.00,VWS V14.01,2013-08-30 05:41:00,
2013-08-30 01:45:00,61.0,61.0,29.97,NW,312,0.0,0.0,100,0.00,,---,0.00,VWS V14.01,2013-08-30 05:45:00,
2013-08-30 01:50:00,61.0,61.0,29.97,NW,311,0.0,0.0,100,0.00,,---,0.00,VWS V14.01,2013-08-30 05:50:00,
2013-08-30 01:51:00,61.7,61.7,29.97,SSW,209,4.0,4.9,100,0.00,,---,0.00,VWS V14.01,2013-08-30 05:51:00,
2013-08-30 01:55:00,60.8,60.8,29.97,NW,311,0.0,0.0,100,0.00,,---,0.00,VWS V14.01,2013-08-30 05:55:00,
2013-08-30 02:00:00,61.0,61.0,29.97,NW,311,0.0,0.0,100,0.00,,---,0.00,VWS V14.01,2013-08-30 06:00:00,
2013-08-30 02:01:00,61.3,61.3,29.97,SSW,209,5.4,6.3,100,0.00,,---,0.00,VWS V14.01,2013-08-30 06:01:00,
2013-08-30 02:05:00,61.0,61.0,29.97,WSW,252,0.0,0.4,100,0.00,,---,0.00,VWS V14.01,2013-08-30 06:05:00,
2013-08-30 02:06:00,61.2,61.2,29.97,SSW,209,3.6,5.4,100,0.00,,---,0.00,VWS V14.01,2013-08-30 06:06:00,
2013-08-30 02:10:00,60.6,60.6,29.97,WSW,252,0.0,0.0,100,0.00,,---,0.00,VWS V14.01,2013-08-30 06:10:00,
2013-08-30 02:11:00,61.2,61.2,29.97,SSW,211,3.1,4.0,100,0.00,,---,0.00,VWS V14.01,2013-08-30 06:11:00,
2013-08-30 02:15:00,60.3,60.3,29.97,WSW,247,0.0,0.0,100,0.00,,---,0.00,VWS V14.01,2013-08-30 06:15:00,
2013-08-30 02:16:00,61.0,61.0,29.94,SSW,211,4.5,4.9,100,0.00,,---,0.00,VWS V14.01,2013-08-30 06:16:00,
2013-08-30 02:20:00,60.1,60.1,29.97,WSW,252,3.1,3.6,100,0.00,,---,0.00,VWS V14.01,2013-08-30 06:20:00,
2013-08-30 02:25:00,61.2,61.2,29.97,SW,214,5.4,5.8,100,0.00,,---,0.00,VWS V14.01,2013-08-30 06:25:00,
2013-08-30 02:26:00,60.4,60.4,29.94,SSW,209,4.0,4.0,100,0.00,,---,0.00,VWS V14.01,2013-08-30 06:26:00,
2013-08-30 02:30:00,61.3,61.3,29.97,SSW,212,2.7,5.8,100,0.00,,---,0.00,VWS V14.01,2013-08-30 06:30:00,
2013-08-30 02:31:00,60.6,60.6,29.94,SSW,209,3.1,4.5,100,0.00,,---,0.00,VWS V14.01,2013-08-30 06:31:00,
2013-08-30 02:35:00,61.2,61.2,29.97,SW,214,3.1,3.6,100,0.00,,---,0.00,VWS V14.01,2013-08-30 06:35:00,
2013-08-30 02:40:00,61.3,61.3,29.97,SSW,212,3.6,4.0,100,0.00,,---,0.00,VWS V14.01,2013-08-30 06:40:00,
2013-08-30 02:41:00,60.4,60.4,29.94,SSW,209,2.2,4.0,100,0.00,,---,0.00,VWS V14.01,2013-08-30 06:41:00,
2013-08-30 02:45:00,61.9,61.9,29.97,SSW,211,3.6,4.9,100,0.00,,---,0.00,VWS V14.01,2013-08-30 06:45:00,
2013-08-30 02:50:00,61.7,61.7,29.97,SSW,209,4.0,4.9,100,0.00,,---,0.00,VWS V14.01,2013-08-30 06:50:00,
2013-08-30 02:51:00,60.3,60.3,29.94,SSW,209,2.2,4.5,100,0.00,,---,0.00,VWS V14.01,2013-08-30 06:51:00,
2013-08-30 02:55:00,61.5,61.5,29.97,SSW,209,4.5,5.8,100,0.00,,---,0.00,VWS V14.01,2013-08-30 06:55:00,
2013-08-30 02:56:00,60.6,60.6,29.94,SSW,211,2.2,3.6,100,0.00,,---,0.00,VWS V14.01,2013-08-30 06:56:00,
2013-08-30 03:00:00,61.3,61.3,29.97,SSW,209,5.4,6.3,100,0.00,,---,0.00,VWS V14.01,2013-08-30 07:00:00,
2013-08-30 03:05:00,61.2,61.2,29.97,SSW,209,3.6,5.4,100,0.00,,---,0.00,VWS V14.01,2013-08-30 07:05:00,
2013-08-30 03:06:00,61.2,61.2,29.94,SSW,209,3.1,4.5,100,0.00,,---,0.00,VWS V14.01,2013-08-30 07:06:00,
2013-08-30 03:10:00,61.2,61.2,29.97,SSW,211,3.1,4.0,100,0.00,,---,0.00,VWS V14.01,2013-08-30 07:10:00,
2013-08-30 03:15:00,61.0,61.0,29.94,SSW,211,4.5,4.9,100,0.00,,---,0.00,VWS V14.01,2013-08-30 07:15:00,
2013-08-30 03:16:00,61.7,61.7,29.94,SSW,209,3.6,4.0,100,0.00,,---,0.00,VWS V14.01,2013-08-30 07:16:00,
2013-08-30 03:20:00,60.8,60.8,29.94,SSW,209,3.1,4.9,100,0.00,,---,0.00,VWS V14.01,2013-08-30 07:20:00,
2013-08-30 03:25:00,60.4,60.4,29.94,SSW,209,4.0,4.0,100,0.00,,---,0.00,VWS V14.01,2013-08-30 07:25:00,
2013-08-30 03:26:00,61.9,61.9,29.94,SSW,209,2.2,3.6,100,0.00,,---,0.00,VWS V14.01,2013-08-30 07:26:00,
2013-08-30 03:30:00,60.6,60.6,29.94,SSW,209,3.1,4.5,100,0.00,,---,0.00,VWS V14.01,2013-08-30 07:30:00,
2013-08-30 03:31:00,61.5,61.5,29.94,SSW,209,4.0,5.8,100,0.00,,---,0.00,VWS V14.01,2013-08-30 07:31:00,
2013-08-30 03:35:00,60.8,60.8,29.94,SSW,209,3.1,4.9,100,0.00,,---,0.00,VWS V14.01,2013-08-30 07:35:00,
2013-08-30 03:36:00,61.3,61.3,29.94,SSW,209,2.7,4.9,100,0.00,,---,0.00,VWS V14.01,2013-08-30 07:36:00,
2013-08-30 03:40:00,60.4,60.4,29.94,SSW,209,2.2,4.0,100,0.00,,---,0.00,VWS V14.01,2013-08-30 07:40:00,
2013-08-30 03:41:00,61.2,61.2,29.94,SSW,209,2.2,4.0,100,0.00,,---,0.00,VWS V14.01,2013-08-30 07:41:00,
2013-08-30 03:45:00,60.1,60.1,29.94,SSW,211,2.2,3.1,100,0.00,,---,0.00,VWS V14.01,2013-08-30 07:45:00,
2013-08-30 03:46:00,61.0,61.0,29.94,SSW,209,2.7,3.6,100,0.00,,---,0.00,VWS V14.01,2013-08-30 07:46:00,
2013-08-30 03:50:00,60.3,60.3,29.94,SSW,209,2.2,4.5,100,0.00,,---,0.00,VWS V14.01,2013-08-30 07:50:00,
2013-08-30 03:55:00,60.6,60.6,29.94,SSW,211,2.2,3.6,100,0.00,,---,0.00,VWS V14.01,2013-08-30 07:55:00,
2013-08-30 03:56:00,60.6,60.6,29.94,SSW,209,2.2,2.7,100,0.00,,---,0.00,VWS V14.01,2013-08-30 07:56:00,
2013-08-30 04:00:00,61.0,61.0,29.94,SSW,209,2.7,3.6,100,0.00,,---,0.00,VWS V14.01,2013-08-30 08:00:00,
2013-08-30 04:01:00,60.3,60.3,29.94,SSW,209,3.6,4.0,100,0.00,,---,0.00,VWS V14.01,2013-08-30 08:01:00,
2013-08-30 04:05:00,61.2,61.2,29.94,SSW,209,3.1,4.5,100,0.00,,---,0.00,VWS V14.01,2013-08-30 08:05:00,
2013-08-30 04:06:00,60.4,60.4,29.94,SSW,211,3.6,4.5,100,0.00,,---,0.00,VWS V14.01,2013-08-30 08:06:00,
2013-08-30 04:10:00,61.2,61.2,29.94,SSW,209,3.6,4.9,100,0.00,,---,0.00,VWS V14.01,2013-08-30 08:10:00,
2013-08-30 04:15:00,61.7,61.7,29.94,SSW,209,3.6,4.0,100,0.00,,---,0.00,VWS V14.01,2013-08-30 08:15:00,
2013-08-30 04:16:00,60.6,60.6,29.94,SSW,209,4.5,4.5,100,0.00,,---,0.00,VWS V14.01,2013-08-30 08:16:00,
2013-08-30 04:20:00,61.9,61.9,29.94,SSW,211,2.7,3.6,100,0.00,,---,0.00,VWS V14.01,2013-08-30 08:20:00,
2013-08-30 04:21:00,60.8,60.8,29.94,SSW,209,3.6,4.5,100,0.00,,---,0.00,VWS V14.01,2013-08-30 08:21:00,
2013-08-30 04:25:00,61.9,61.9,29.94,SSW,209,2.2,3.6,100,0.00,,---,0.00,VWS V14.01,2013-08-30 08:25:00,
2013-08-30 04:26:00,60.6,60.6,29.94,SSW,211,1.3,3.6,100,0.00,,---,0.00,VWS V14.01,2013-08-30 08:26:00,
2013-08-30 04:30:00,61.5,61.5,29.94,SSW,209,4.0,5.8,100,0.00,,---,0.00,VWS V14.01,2013-08-30 08:30:00,
2013-08-30 04:31:00,60.4,60.4,29.94,SSW,209,2.2,2.7,100,0.00,,---,0.00,VWS V14.01,2013-08-30 08:31:00,
2013-08-30 04:35:00,61.3,61.3,29.94,SSW,209,2.7,4.9,100,0.00,,---,0.00,VWS V14.01,2013-08-30 08:35:00,
2013-08-30 04:36:00,60.1,60.1,29.94,SSW,209,3.6,4.0,100,0.00,,---,0.00,VWS V14.01,2013-08-30 08:36:00,
2013-08-30 04:40:00,61.2,61.2,29.94,SSW,209,2.2,4.0,100,0.00,,---,0.00,VWS V14.01,2013-08-30 08:40:00,
2013-08-30 04:41:00,60.1,60.1,29.94,SSW,211,4.0,5.8,100,0.00,,---,0.00,VWS V14.01,2013-08-30 08:41:00,
2013-08-30 04:45:00,61.0,61.0,29.94,SSW,209,2.7,3.6,100,0.00,,---,0.00,VWS V14.01,2013-08-30 08:45:00,
2013-08-30 04:46:00,60.1,60.1,29.94,SSW,209,3.6,4.9,100,0.00,,---,0.00,VWS V14.01,2013-08-30 08:46:00,
2013-08-30 04:50:00,61.0,61.0,29.94,SSW,209,2.2,3.6,100,0.00,,---,0.00,VWS V14.01,2013-08-30 08:50:00,
2013-08-30 04:51:00,60.3,60.3,29.94,SSW,209,5.8,5.8,100,0.00,,---,0.00,VWS V14.01,2013-08-30 08:51:00,
2013-08-30 04:55:00,60.6,60.6,29.94,SSW,209,2.2,2.7,100,0.00,,---,0.00,VWS V14.01,2013-08-30 08:55:00,
2013-08-30 04:56:00,60.1,60.1,29.94,SSW,195,5.8,6.3,100,0.00,,---,0.00,VWS V14.01,2013-08-30 08:56:00,
2013-08-30 05:00:00,60.3,60.3,29.94,SSW,209,3.6,4.0,100,0.00,,---,0.00,VWS V14.01,2013-08-30 09:00:00,
2013-08-30 05:01:00,59.4,59.4,29.94,SSW,195,2.7,5.8,100,0.00,,---,0.00,VWS V14.01,2013-08-30 09:01:00,
2013-08-30 05:05:00,60.4,60.4,29.94,SSW,211,3.6,4.5,100,0.00,,---,0.00,VWS V14.01,2013-08-30 09:05:00,
2013-08-30 05:06:00,58.8,58.8,29.94,SSW,195,2.2,4.0,100,0.00,,---,0.00,VWS V14.01,2013-08-30 09:06:00,
2013-08-30 05:10:00,60.4,60.4,29.94,SSW,209,4.0,4.9,100,0.00,,---,0.00,VWS V14.01,2013-08-30 09:10:00,
2013-08-30 05:11:00,58.8,58.8,29.94,SSW,195,3.6,3.6,100,0.00,,---,0.00,VWS V14.01,2013-08-30 09:11:00,
2013-08-30 05:15:00,60.6,60.6,29.94,SSW,209,4.5,4.5,100,0.00,,---,0.00,VWS V14.01,2013-08-30 09:15:00,
2013-08-30 05:16:00,58.8,58.8,29.94,SSW,195,3.1,4.0,100,0.00,,---,0.00,VWS V14.01,2013-08-30 09:16:00,
2013-08-30 05:20:00,60.8,60.8,29.94,SSW,209,3.6,4.5,100,0.00,,---,0.00,VWS V14.01,2013-08-30 09:20:00,
2013-08-30 05:21:00,59.5,59.5,29.94,SSW,195,4.5,4.5,100,0.00,,---,0.00,VWS V14.01,2013-08-30 09:21:00,
2013-08-30 05:25:00,60.6,60.6,29.94,SSW,211,1.3,3.6,100,0.00,,---,0.00,VWS V14.01,2013-08-30 09:25:00,
2013-08-30 05:26:00,60.1,60.1,29.94,SSW,201,4.9,5.4,100,0.00,,---,0.00,VWS V14.01,2013-08-30 09:26:00,
2013-08-30 05:30:00,60.4,60.4,29.94,SSW,209,2.2,2.7,100,0.00,,---,0.00,VWS V14.01,2013-08-30 09:30:00,
2013-08-30 05:31:00,60.3,60.3,29.94,SSW,205,2.7,5.4,100,0.00,,---,0.00,VWS V14.01,2013-08-30 09:31:00,
2013-08-30 05:35:00,60.1,60.1,29.94,SSW,209,3.6,4.0,100,0.00,,---,0.00,VWS V14.01,2013-08-30 09:35:00,
2013-08-30 05:36:00,59.7,59.7,29.94,SSW,205,2.7,3.6,100,0.00,,---,0.00,VWS V14.01,2013-08-30 09:36:00,
2013-08-30 05:40:00,60.1,60.1,29.94,SSW,211,4.0,5.8,100,0.00,,---,0.00,VWS V14.01,2013-08-30 09:40:00,
2013-08-30 05:41:00,59.5,59.5,29.94,SSW,204,2.2,4.0,100,0.00,,---,0.00,VWS V14.01,2013-08-30 09:41:00,
2013-08-30 05:45:00,60.1,60.1,29.94,SSW,209,3.6,4.9,100,0.00,,---,0.00,VWS V14.01,2013-08-30 09:45:00,
2013-08-30 05:46:00,59.0,59.0,29.94,SSW,205,2.2,3.1,100,0.00,,---,0.00,VWS V14.01,2013-08-30 09:46:00,
2013-08-30 05:50:00,60.3,60.3,29.94,SSW,209,5.8,5.8,100,0.00,,---,0.00,VWS V14.01,2013-08-30 09:50:00,
2013-08-30 05:51:00,59.2,59.2,29.94,SSW,205,4.0,4.5,100,0.00,,---,0.00,VWS V14.01,2013-08-30 09:51:00,
2013-08-30 05:55:00,60.1,60.1,29.94,SSW,195,5.8,6.3,100,0.00,,---,0.00,VWS V14.01,2013-08-30 09:55:00,
2013-08-30 05:56:00,59.9,59.9,29.94,SSW,204,5.4,6.3,100,0.00,,---,0.00,VWS V14.01,2013-08-30 09:56:00,
2013-08-30 06:00:00,59.4,59.4,29.94,SSW,195,2.7,5.8,100,0.00,,---,0.00,VWS V14.01,2013-08-30 10:00:00,
2013-08-30 06:01:00,60.4,60.4,29.94,SSW,205,5.8,6.3,100,0.00,,---,0.00,VWS V14.01,2013-08-30 10:01:00,
2013-08-30 06:05:00,58.8,58.8,29.94,SSW,195,2.2,4.0,100,0.00,,---,0.00,VWS V14.01,2013-08-30 10:05:00,
2013-08-30 06:06:00,60.4,60.4,29.94,SSW,205,4.0,5.8,100,0.00,,---,0.00,VWS V14.01,2013-08-30 10:06:00,
2013-08-30 06:10:00,58.8,58.8,29.94,SSW,195,3.6,3.6,100,0.00,,---,0.00,VWS V14.01,2013-08-30 10:10:00,
2013-08-30 06:11:00,60.3,60.3,29.94,SSW,205,4.0,5.4,100,0.00,,---,0.00,VWS V14.01,2013-08-30 10:11:00,
2013-08-30 06:15:00,58.8,58.8,29.94,SSW,195,3.1,4.0,100,0.00,,---,0.00,VWS V14.01,2013-08-30 10:15:00,
2013-08-30 06:16:00,60.1,60.1,29.94,SSW,205,3.6,4.9,100,0.00,,---,0.00,VWS V14.01,2013-08-30 10:16:00,
2013-08-30 06:20:00,59.5,59.5,29.94,SSW,195,4.5,4.5,100,0.00,,---,0.00,VWS V14.01,2013-08-30 10:20:00,
2013-08-30 06:21:00,60.1,60.1,29.94,SSW,205,3.1,4.5,100,0.00,,---,0.00,VWS V14.01,2013-08-30 10:21:00,
2013-08-30 06:25:00,60.1,60.1,29.94,SSW,201,4.9,5.4,100,0.00,,---,0.00,VWS V14.01,2013-08-30 10:25:00,
2013-08-30 06:26:00,60.3,60.3,29.94,SSW,205,5.4,5.8,100,0.00,,---,0.00,VWS V14.01,2013-08-30 10:26:00,
2013-08-30 06:30:00,60.3,60.3,29.94,SSW,205,2.7,5.4,100,0.00,,---,0.00,VWS V14.01,2013-08-30 10:30:00,
2013-08-30 06:31:00,60.4,60.4,29.94,SSW,207,4.9,6.7,100,0.00,,---,0.00,VWS V14.01,2013-08-30 10:31:00,
2013-08-30 06:35:00,59.7,59.7,29.94,SSW,205,2.7,3.6,100,0.00,,---,0.00,VWS V14.01,2013-08-30 10:35:00,
2013-08-30 06:36:00,60.4,60.4,29.94,SSW,207,4.0,5.8,100,0.00,,---,0.00,VWS V14.01,2013-08-30 10:36:00,
2013-08-30 06:40:00,59.5,59.5,29.94,SSW,204,2.2,4.0,100,0.00,,---,0.00,VWS V14.01,2013-08-30 10:40:00,
2013-08-30 06:41:00,60.4,60.4,29.94,SSW,207,3.6,4.5,100,0.00,,---,0.00,VWS V14.01,2013-08-30 10:41:00,
2013-08-30 06:45:00,59.0,59.0,29.94,SSW,205,2.2,3.1,100,0.00,,---,0.00,VWS V14.01,2013-08-30 10:45:00,
2013-08-30 06:46:00,60.4,60.4,29.97,SSW,207,3.1,4.5,100,0.00,,---,0.00,VWS V14.01,2013-08-30 10:46:00,
2013-08-30 06:50:00,59.2,59.2,29.94,SSW,205,4.0,4.5,100,0.00,,---,0.00,VWS V14.01,2013-08-30 10:50:00,
2013-08-30 06:51:00,60.4,60.4,29.97,SSW,207,3.1,4.5,100,0.00,,---,0.00,VWS V14.01,2013-08-30 10:51:00,
2013-08-30 06:55:00,59.9,59.9,29.94,SSW,204,5.4,6.3,100,0.00,,---,0.00,VWS V14.01,2013-08-30 10:55:00,
2013-08-30 06:56:00,60.4,60.4,29.97,SSW,207,3.6,4.5,100,0.00,,---,0.00,VWS V14.01,2013-08-30 10:56:00,
2013-08-30 07:00:00,60.4,60.4,29.94,SSW,205,5.8,6.3,100,0.00,,---,0.00,VWS V14.01,2013-08-30 11:00:00,
2013-08-30 07:01:00,60.8,60.8,29.94,SSW,207,3.6,5.8,100,0.00,,---,0.00,VWS V14.01,2013-08-30 11:01:00,
2013-08-30 07:05:00,60.4,60.4,29.94,SSW,205,4.0,5.8,100,0.00,,---,0.00,VWS V14.01,2013-08-30 11:05:00,
2013-08-30 07:06:00,61.0,61.0,29.94,SSW,207,4.0,4.9,100,0.00,,---,0.00,VWS V14.01,2013-08-30 11:06:00,
2013-08-30 07:10:00,60.3,60.3,29.94,SSW,205,4.0,5.4,100,0.00,,---,0.00,VWS V14.01,2013-08-30 11:10:00,
2013-08-30 07:11:00,61.2,61.2,29.94,SSW,201,5.8,7.2,100,0.00,,---,0.00,VWS V14.01,2013-08-30 11:11:00,
2013-08-30 07:15:00,60.1,60.1,29.94,SSW,205,3.6,4.9,100,0.00,,---,0.00,VWS V14.01,2013-08-30 11:15:00,
2013-08-30 07:16:00,61.2,61.2,29.94,SSW,201,4.0,6.3,100,0.00,,---,0.00,VWS V14.01,2013-08-30 11:16:00,
2013-08-30 07:20:00,60.1,60.1,29.94,SSW,205,3.1,4.5,100,0.00,,---,0.00,VWS V14.01,2013-08-30 11:20:00,
2013-08-30 07:21:00,61.3,61.3,29.94,SSW,201,3.1,5.4,100,0.00,,---,0.00,VWS V14.01,2013-08-30 11:21:00,
2013-08-30 07:25:00,60.3,60.3,29.94,SSW,205,5.4,5.8,100,0.00,,---,0.00,VWS V14.01,2013-08-30 11:25:00,
2013-08-30 07:26:00,61.9,61.9,29.94,SSW,204,5.8,6.3,100,0.00,,---,0.00,VWS V14.01,2013-08-30 11:26:00,
2013-08-30 07:30:00,60.4,60.4,29.94,SSW,207,4.9,6.7,100,0.00,,---,0.00,VWS V14.01,2013-08-30 11:30:00,
2013-08-30 07:31:00,61.9,61.9,29.94,South,185,3.1,5.8,100,0.00,,---,0.00,VWS V14.01,2013-08-30 11:31:00,
2013-08-30 07:35:00,60.4,60.4,29.94,SSW,207,4.0,5.8,100,0.00,,---,0.00,VWS V14.01,2013-08-30 11:35:00,
2013-08-30 07:36:00,61.5,61.5,29.94,South,180,3.1,4.0,100,0.00,,---,0.00,VWS V14.01,2013-08-30 11:36:00,
2013-08-30 07:40:00,60.4,60.4,29.94,SSW,207,3.6,4.5,100,0.00,,---,0.00,VWS V14.01,2013-08-30 11:40:00,
2013-08-30 07:41:00,61.5,61.5,29.94,South,180,2.7,4.0,100,0.00,,---,0.00,VWS V14.01,2013-08-30 11:41:00,
2013-08-30 07:45:00,60.4,60.4,29.97,SSW,207,3.1,4.5,100,0.00,,---,0.00,VWS V14.01,2013-08-30 11:45:00,
2013-08-30 07:46:00,61.5,61.5,29.94,South,181,0.0,2.7,100,0.00,,---,0.00,VWS V14.01,2013-08-30 11:46:00,
2013-08-30 07:50:00,60.4,60.4,29.97,SSW,207,3.1,4.5,100,0.00,,---,0.00,VWS V14.01,2013-08-30 11:50:00,
2013-08-30 07:51:00,61.3,61.3,29.94,South,180,0.4,1.8,100,0.00,,---,0.00,VWS V14.01,2013-08-30 11:51:00,
2013-08-30 07:55:00,60.4,60.4,29.97,SSW,207,3.6,4.5,100,0.00,,---,0.00,VWS V14.01,2013-08-30 11:55:00,
2013-08-30 07:56:00,61.5,61.5,29.94,South,180,0.0,0.4,100,0.00,,---,0.00,VWS V14.01,2013-08-30 11:56:00,
2013-08-30 08:00:00,60.8,60.8,29.94,SSW,207,3.6,5.8,100,0.00,,---,0.00,VWS V14.01,2013-08-30 12:00:00,
2013-08-30 08:01:00,61.9,61.9,29.94,South,180,4.0,4.5,100,0.00,,---,0.00,VWS V14.01,2013-08-30 12:01:00,
2013-08-30 08:05:00,61.0,61.0,29.94,SSW,207,4.0,4.9,100,0.00,,---,0.00,VWS V14.01,2013-08-30 12:05:00,
2013-08-30 08:06:00,62.2,62.2,29.94,South,181,4.0,4.5,100,0.00,,---,0.00,VWS V14.01,2013-08-30 12:06:00,
2013-08-30 08:10:00,61.2,61.2,29.94,SSW,201,5.8,7.2,100,0.00,,---,0.00,VWS V14.01,2013-08-30 12:10:00,
2013-08-30 08:11:00,62.8,62.8,29.94,South,181,3.6,5.8,100,0.00,,---,0.00,VWS V14.01,2013-08-30 12:11:00,
2013-08-30 08:15:00,61.2,61.2,29.94,SSW,201,4.0,6.3,100,0.00,,---,0.00,VWS V14.01,2013-08-30 12:15:00,
2013-08-30 08:16:00,63.0,63.0,29.94,South,181,4.0,4.9,100,0.00,,---,0.00,VWS V14.01,2013-08-30 12:16:00,
2013-08-30 08:20:00,61.3,61.3,29.94,SSW,201,3.1,5.4,100,0.00,,---,0.00,VWS V14.01,2013-08-30 12:20:00,
2013-08-30 08:21:00,63.3,63.3,29.94,South,181,2.7,4.5,100,0.00,,---,0.00,VWS V14.01,2013-08-30 12:21:00,
2013-08-30 08:25:00,61.9,61.9,29.94,SSW,204,5.8,6.3,100,0.00,,---,0.00,VWS V14.01,2013-08-30 12:25:00,
2013-08-30 08:26:00,63.7,63.7,29.94,South,181,3.6,3.6,100,0.00,,---,0.00,VWS V14.01,2013-08-30 12:26:00,
2013-08-30 08:30:00,61.9,61.9,29.94,South,185,3.1,5.8,100,0.00,,---,0.00,VWS V14.01,2013-08-30 12:30:00,
2013-08-30 08:31:00,64.2,64.2,29.94,South,181,1.3,4.9,100,0.00,,---,0.00,VWS V14.01,2013-08-30 12:31:00,
2013-08-30 08:35:00,61.5,61.5,29.94,South,180,3.1,4.0,100,0.00,,---,0.00,VWS V14.01,2013-08-30 12:35:00,
2013-08-30 08:36:00,65.5,65.5,29.94,South,181,2.7,5.4,100,0.00,,---,0.00,VWS V14.01,2013-08-30 12:36:00,
2013-08-30 08:40:00,61.5,61.5,29.94,South,180,2.7,4.0,100,0.00,,---,0.00,VWS V14.01,2013-08-30 12:40:00,
2013-08-30 08:41:00,65.8,65.8,29.94,South,181,2.2,5.4,100,0.00,,---,0.00,VWS V14.01,2013-08-30 12:41:00,
2013-08-30 08:45:00,61.5,61.5,29.94,South,181,0.0,2.7,100,0.00,,---,0.00,VWS V14.01,2013-08-30 12:45:00,
2013-08-30 08:46:00,66.9,66.9,29.94,South,178,4.5,6.7,100,0.00,,---,0.00,VWS V14.01,2013-08-30 12:46:00,
2013-08-30 08:50:00,61.3,61.3,29.94,South,180,0.4,1.8,100,0.00,,---,0.00,VWS V14.01,2013-08-30 12:50:00,
2013-08-30 08:55:00,61.5,61.5,29.94,South,180,0.0,0.4,100,0.00,,---,0.00,VWS V14.01,2013-08-30 12:55:00,
2013-08-30 08:56:00,67.8,67.8,29.94,South,176,4.0,4.9,100,0.00,,---,0.00,VWS V14.01,2013-08-30 12:56:00,
2013-08-30 09:00:00,61.9,61.9,29.94,South,180,4.0,4.5,100,0.00,,---,0.00,VWS V14.01,2013-08-30 13:00:00,
2013-08-30 09:05:00,62.2,62.2,29.94,South,181,4.0,4.5,100,0.00,,---,0.00,VWS V14.01,2013-08-30 13:05:00,
2013-08-30 09:10:00,62.8,62.8,29.94,South,181,3.6,5.8,100,0.00,,---,0.00,VWS V14.01,2013-08-30 13:10:00,
2013-08-30 09:11:00,70.0,70.0,29.94,South,170,3.1,4.5,100,0.00,,---,0.00,VWS V14.01,2013-08-30 13:11:00,
2013-08-30 09:15:00,63.0,63.0,29.94,South,181,4.0,4.9,100,0.00,,---,0.00,VWS V14.01,2013-08-30 13:15:00,
2013-08-30 09:16:00,70.5,70.5,29.94,SSE,167,4.0,5.4,100,0.00,,---,0.00,VWS V14.01,2013-08-30 13:16:00,
2013-08-30 09:20:00,63.3,63.3,29.94,South,181,2.7,4.5,100,0.00,,---,0.00,VWS V14.01,2013-08-30 13:20:00,
2013-08-30 09:21:00,71.1,71.1,29.94,SSE,154,4.9,6.7,100,0.00,,---,0.00,VWS V14.01,2013-08-30 13:21:00,
2013-08-30 09:25:00,63.7,63.7,29.94,South,181,3.6,3.6,100,0.00,,---,0.00,VWS V14.01,2013-08-30 13:25:00,
2013-08-30 09:30:00,64.2,64.2,29.94,South,181,1.3,4.9,100,0.00,,---,0.00,VWS V14.01,2013-08-30 13:30:00,
2013-08-30 09:35:00,65.5,65.5,29.94,South,181,2.7,5.4,100,0.00,,---,0.00,VWS V14.01,2013-08-30 13:35:00,
2013-08-30 09:36:00,73.9,73.0,29.94,SSE,153,4.5,5.4,97,0.00,,---,0.00,VWS V14.01,2013-08-30 13:36:00,
2013-08-30 09:40:00,65.8,65.8,29.94,South,181,2.2,5.4,100,0.00,,---,0.00,VWS V14.01,2013-08-30 13:40:00,
2013-08-30 09:41:00,74.5,72.0,29.94,SSE,147,3.1,6.3,92,0.00,,---,0.00,VWS V14.01,2013-08-30 13:41:00,
2013-08-30 09:45:00,66.9,66.9,29.94,South,178,4.5,6.7,100,0.00,,---,0.00,VWS V14.01,2013-08-30 13:45:00,
2013-08-30 09:46:00,75.2,71.1,29.94,SSE,157,2.2,4.9,87,0.00,,---,0.00,VWS V14.01,2013-08-30 13:46:00,
2013-08-30 09:50:00,67.5,67.5,29.94,South,178,4.5,6.7,100,0.00,,---,0.00,VWS V14.01,2013-08-30 13:50:00,
2013-08-30 09:55:00,67.8,67.8,29.94,South,176,4.0,4.9,100,0.00,,---,0.00,VWS V14.01,2013-08-30 13:55:00,
2013-08-30 09:56:00,76.8,70.2,29.94,SSE,159,0.0,4.5,80,0.00,,---,0.00,VWS V14.01,2013-08-30 13:56:00,
2013-08-30 10:00:00,68.5,68.6,29.94,South,170,4.9,5.8,100,0.00,,---,0.00,VWS V14.01,2013-08-30 14:00:00,
2013-08-30 10:01:00,77.7,70.3,29.94,SSE,159,3.1,4.0,78,0.00,,---,0.00,VWS V14.01,2013-08-30 14:01:00,
2013-08-30 10:05:00,69.1,69.1,29.94,South,169,2.2,4.9,100,0.00,,---,0.00,VWS V14.01,2013-08-30 14:05:00,
2013-08-30 10:06:00,78.8,70.6,29.94,SSE,166,0.4,4.0,76,0.00,,---,0.00,VWS V14.01,2013-08-30 14:06:00,
2013-08-30 10:10:00,70.0,70.0,29.94,South,170,3.1,4.5,100,0.00,,---,0.00,VWS V14.01,2013-08-30 14:10:00,
2013-08-30 10:11:00,79.7,69.9,29.94,SSE,166,0.0,3.6,72,0.00,,---,0.00,VWS V14.01,2013-08-30 14:11:00,
2013-08-30 10:15:00,70.5,70.5,29.94,SSE,167,4.0,5.4,100,0.00,,---,0.00,VWS V14.01,2013-08-30 14:15:00,
2013-08-30 10:16:00,80.4,70.2,29.94,SSE,166,1.8,3.1,71,0.00,,---,0.00,VWS V14.01,2013-08-30 14:16:00,
2013-08-30 10:20:00,71.1,71.1,29.94,SSE,154,4.9,6.7,100,0.00,,---,0.00,VWS V14.01,2013-08-30 14:20:00,
2013-08-30 10:25:00,72.0,72.0,29.94,SSE,149,5.4,5.8,100,0.00,,---,0.00,VWS V14.01,2013-08-30 14:25:00,
2013-08-30 10:26:00,82.6,68.2,29.94,SSE,164,0.9,2.2,62,0.00,,---,0.00,VWS V14.01,2013-08-30 14:26:00,
2013-08-30 10:30:00,73.2,73.2,29.94,SSE,150,3.1,5.4,100,0.00,,---,0.00,VWS V14.01,2013-08-30 14:30:00,
2013-08-30 10:31:00,82.9,68.1,29.94,SSE,166,0.0,2.2,61,0.00,,---,0.00,VWS V14.01,2013-08-30 14:31:00,
2013-08-30 10:35:00,73.9,73.0,29.94,SSE,153,4.5,5.4,97,0.00,,---,0.00,VWS V14.01,2013-08-30 14:35:00,
2013-08-30 10:40:00,74.5,72.0,29.94,SSE,147,3.1,6.3,92,0.00,,---,0.00,VWS V14.01,2013-08-30 14:40:00,
2013-08-30 10:41:00,83.8,68.5,29.94,SSE,160,0.4,4.5,60,0.00,,---,0.00,VWS V14.01,2013-08-30 14:41:00,
2013-08-30 10:45:00,75.2,71.1,29.94,SSE,157,2.2,4.9,87,0.00,,---,0.00,VWS V14.01,2013-08-30 14:45:00,
2013-08-30 10:46:00,84.6,68.7,29.94,SSW,194,4.5,5.8,59,0.00,,---,0.00,VWS V14.01,2013-08-30 14:46:00,
2013-08-30 10:50:00,75.6,71.1,29.94,SSE,159,0.0,4.9,86,0.00,,---,0.00,VWS V14.01,2013-08-30 14:50:00,
2013-08-30 10:51:00,84.7,68.8,29.94,South,170,3.6,5.4,59,0.00,,---,0.00,VWS V14.01,2013-08-30 14:51:00,
2013-08-30 10:55:00,76.8,70.2,29.94,SSE,159,0.0,4.5,80,0.00,,---,0.00,VWS V14.01,2013-08-30 14:55:00,
2013-08-30 11:00:00,77.7,70.3,29.94,SSE,159,3.1,4.0,78,0.00,,---,0.00,VWS V14.01,2013-08-30 15:00:00,
2013-08-30 11:01:00,83.3,68.0,29.94,South,180,4.9,7.6,60,0.00,,---,0.00,VWS V14.01,2013-08-30 15:01:00,
2013-08-30 11:05:00,78.8,70.6,29.94,SSE,166,0.4,4.0,76,0.00,,---,0.00,VWS V14.01,2013-08-30 15:05:00,
2013-08-30 11:10:00,79.7,69.9,29.94,SSE,166,0.0,3.6,72,0.00,,---,0.00,VWS V14.01,2013-08-30 15:10:00,
2013-08-30 11:11:00,84.2,68.3,29.94,SSE,167,3.1,6.3,59,0.00,,---,0.00,VWS V14.01,2013-08-30 15:11:00,
2013-08-30 11:15:00,80.4,70.2,29.94,SSE,166,1.8,3.1,71,0.00,,---,0.00,VWS V14.01,2013-08-30 15:15:00,
2013-08-30 11:20:00,82.2,68.8,29.94,SSE,164,0.0,2.7,64,0.00,,---,0.00,VWS V14.01,2013-08-30 15:20:00,
2013-08-30 11:21:00,85.1,68.7,29.91,WSW,240,6.7,11.6,58,0.00,,---,0.00,VWS V14.01,2013-08-30 15:21:00,
2013-08-30 11:25:00,82.6,68.2,29.94,SSE,164,0.9,2.2,62,0.00,,---,0.00,VWS V14.01,2013-08-30 15:25:00,
2013-08-30 11:26:00,85.5,69.0,29.91,South,191,2.7,6.7,58,0.00,,---,0.00,VWS V14.01,2013-08-30 15:26:00,
2013-08-30 11:30:00,82.9,68.1,29.94,SSE,166,0.0,2.2,61,0.00,,---,0.00,VWS V14.01,2013-08-30 15:30:00,
2013-08-30 11:35:00,84.0,68.7,29.94,SSE,159,3.6,4.5,60,0.00,,---,0.00,VWS V14.01,2013-08-30 15:35:00,
2013-08-30 11:36:00,86.2,69.7,29.91,WSW,238,0.9,6.3,58,0.00,,---,0.00,VWS V14.01,2013-08-30 15:36:00,
2013-08-30 11:40:00,83.8,68.5,29.94,SSE,160,0.4,4.5,60,0.00,,---,0.00,VWS V14.01,2013-08-30 15:40:00,
2013-08-30 11:45:00,84.6,68.7,29.94,SSW,194,4.5,5.8,59,0.00,,---,0.00,VWS V14.01,2013-08-30 15:45:00,
2013-08-30 11:46:00,88.2,70.0,29.91,SW,226,0.4,4.9,55,0.00,,---,0.00,VWS V14.01,2013-08-30 15:46:00,
2013-08-30 11:50:00,84.7,68.8,29.94,South,170,3.6,5.4,59,0.00,,---,0.00,VWS V14.01,2013-08-30 15:50:00,
2013-08-30 11:55:00,83.3,67.5,29.94,SE,139,5.8,5.8,59,0.00,,---,0.00,VWS V14.01,2013-08-30 15:55:00,
2013-08-30 11:56:00,86.9,68.8,29.91,South,184,2.2,7.2,55,0.00,,---,0.00,VWS V14.01,2013-08-30 15:56:00,
2013-08-30 12:00:00,83.3,68.0,29.94,South,180,4.9,7.6,60,0.00,,---,0.00,VWS V14.01,2013-08-30 16:00:00,
2013-08-30 12:01:00,87.1,70.5,29.91,South,183,3.6,4.0,58,0.00,,---,0.00,VWS V14.01,2013-08-30 16:01:00,
2013-08-30 12:05:00,84.0,68.2,29.94,South,169,3.6,6.3,59,0.00,,---,0.00,VWS V14.01,2013-08-30 16:05:00,
2013-08-30 12:10:00,84.2,68.3,29.94,SSE,167,3.1,6.3,59,0.00,,---,0.00,VWS V14.01,2013-08-30 16:10:00,
2013-08-30 12:11:00,87.4,70.9,29.91,SSE,164,4.9,6.7,58,0.00,,---,0.00,VWS V14.01,2013-08-30 16:11:00,
2013-08-30 12:15:00,85.1,69.2,29.91,SSW,205,7.2,7.6,59,0.00,,---,0.00,VWS V14.01,2013-08-30 16:15:00,
2013-08-30 12:20:00,85.1,68.7,29.91,WSW,240,6.7,11.6,58,0.00,,---,0.00,VWS V14.01,2013-08-30 16:20:00,
2013-08-30 12:21:00,86.9,68.8,29.91,SW,229,1.3,4.5,55,0.00,,---,0.00,VWS V14.01,2013-08-30 16:21:00,
2013-08-30 12:25:00,85.5,69.0,29.91,South,191,2.7,6.7,58,0.00,,---,0.00,VWS V14.01,2013-08-30 16:25:00,
2013-08-30 12:26:00,87.8,71.2,29.91,SSW,197,7.6,7.6,58,0.00,,---,0.00,VWS V14.01,2013-08-30 16:26:00,
2013-08-30 12:30:00,85.8,68.3,29.91,SW,223,5.4,8.1,56,0.00,,---,0.00,VWS V14.01,2013-08-30 16:30:00,
2013-08-30 12:35:00,86.2,69.7,29.91,WSW,238,0.9,6.3,58,0.00,,---,0.00,VWS V14.01,2013-08-30 16:35:00,
2013-08-30 12:36:00,86.2,68.7,29.91,WSW,246,0.0,10.7,56,0.00,,---,0.00,VWS V14.01,2013-08-30 16:36:00,
2013-08-30 12:40:00,87.4,69.3,29.91,WSW,242,1.8,4.0,55,0.00,,---,0.00,VWS V14.01,2013-08-30 16:40:00,
2013-08-30 12:45:00,88.2,70.0,29.91,SW,226,0.4,4.9,55,0.00,,---,0.00,VWS V14.01,2013-08-30 16:45:00,
2013-08-30 12:46:00,87.4,70.9,29.91,SW,221,4.9,12.1,58,0.00,,---,0.00,VWS V14.01,2013-08-30 16:46:00,
2013-08-30 12:50:00,87.6,69.5,29.91,SW,214,7.2,7.6,55,0.00,,---,0.00,VWS V14.01,2013-08-30 16:50:00,
2013-08-30 12:55:00,86.9,68.8,29.91,South,184,2.2,7.2,55,0.00,,---,0.00,VWS V14.01,2013-08-30 16:55:00,
2013-08-30 12:56:00,88.3,70.1,29.91,South,176,1.8,6.7,55,0.00,,---,0.00,VWS V14.01,2013-08-30 16:56:00,
2013-08-30 13:00:00,87.1,70.5,29.91,South,183,3.6,4.0,58,0.00,,---,0.00,VWS V14.01,2013-08-30 17:00:00,
2013-08-30 13:01:00,88.2,68.9,29.88,SSW,200,3.6,12.1,53,0.00,,---,0.00,VWS V14.01,2013-08-30 17:01:00,
2013-08-30 13:05:00,87.1,69.0,29.91,SE,142,3.6,8.5,55,0.00,,---,0.00,VWS V14.01,2013-08-30 17:05:00,
2013-08-30 13:10:00,87.4,70.9,29.91,SSE,164,4.9,6.7,58,0.00,,---,0.00,VWS V14.01,2013-08-30 17:10:00,
2013-08-30 13:11:00,88.3,70.1,29.88,SSE,156,7.6,8.5,55,0.00,,---,0.00,VWS V14.01,2013-08-30 17:11:00,
2013-08-30 13:15:00,86.7,70.2,29.91,SW,235,3.6,10.3,58,0.00,,---,0.00,VWS V14.01,2013-08-30 17:15:00,
2013-08-30 13:20:00,86.9,68.8,29.91,SW,229,1.3,4.5,55,0.00,,---,0.00,VWS V14.01,2013-08-30 17:20:00,
2013-08-30 13:21:00,88.0,69.8,29.88,South,170,1.8,7.2,55,0.00,,---,0.00,VWS V14.01,2013-08-30 17:21:00,
2013-08-30 13:25:00,87.8,71.2,29.91,SSW,197,7.6,7.6,58,0.00,,---,0.00,VWS V14.01,2013-08-30 17:25:00,
2013-08-30 13:26:00,88.2,71.5,29.88,SSE,147,4.9,8.5,58,0.00,,---,0.00,VWS V14.01,2013-08-30 17:26:00,
2013-08-30 13:30:00,86.7,70.2,29.91,SSW,200,7.2,7.6,58,0.00,,---,0.00,VWS V14.01,2013-08-30 17:30:00,
2013-08-30 13:31:00,88.0,69.8,29.88,SW,219,2.2,10.3,55,0.00,,---,0.00,VWS V14.01,2013-08-30 17:31:00,
2013-08-30 13:35:00,86.2,68.7,29.91,WSW,246,0.0,10.7,56,0.00,,---,0.00,VWS V14.01,2013-08-30 17:35:00,
2013-08-30 13:36:00,87.3,70.7,29.88,SSW,195,13.0,13.0,58,0.00,,---,0.00,VWS V14.01,2013-08-30 17:36:00,
2013-08-30 13:40:00,87.4,69.3,29.91,South,169,7.2,7.6,55,0.00,,---,0.00,VWS V14.01,2013-08-30 17:40:00,
2013-08-30 13:45:00,87.4,70.9,29.91,SW,221,4.9,12.1,58,0.00,,---,0.00,VWS V14.01,2013-08-30 17:45:00,
2013-08-30 13:46:00,88.2,70.0,29.88,South,184,8.1,14.3,55,0.00,,---,0.00,VWS V14.01,2013-08-30 17:46:00,
2013-08-30 13:50:00,86.9,68.8,29.91,SW,218,0.0,6.3,55,0.00,,---,0.00,VWS V14.01,2013-08-30 17:50:00,
2013-08-30 13:51:00,88.2,68.9,29.88,SW,215,6.3,12.5,53,0.00,,---,0.00,VWS V14.01,2013-08-30 17:51:00,
2013-08-30 13:55:00,88.3,70.1,29.91,South,176,1.8,6.7,55,0.00,,---,0.00,VWS V14.01,2013-08-30 17:55:00,
2013-08-30 14:01:00,88.7,70.5,29.88,SSW,202,8.1,11.2,55,0.00,,---,0.00,VWS V14.01,2013-08-30 18:01:00,
2013-08-30 14:05:00,88.3,70.1,29.88,SW,229,5.8,9.4,55,0.00,,---,0.00,VWS V14.01,2013-08-30 18:05:00,
2013-08-30 14:10:00,88.3,70.1,29.88,SSE,156,7.6,8.5,55,0.00,,---,0.00,VWS V14.01,2013-08-30 18:10:00,
2013-08-30 14:11:00,88.3,69.1,29.88,SSW,202,7.2,13.9,53,0.00,,---,0.00,VWS V14.01,2013-08-30 18:11:00,
2013-08-30 14:15:00,87.3,70.7,29.88,South,190,4.9,11.2,58,0.00,,---,0.00,VWS V14.01,2013-08-30 18:15:00,
2013-08-30 14:16:00,88.0,69.8,29.88,South,188,4.9,10.3,55,0.00,,---,0.00,VWS V14.01,2013-08-30 18:16:00,
2013-08-30 14:20:00,88.0,69.8,29.88,South,170,1.8,7.2,55,0.00,,---,0.00,VWS V14.01,2013-08-30 18:20:00,
2013-08-30 14:25:00,88.2,71.5,29.88,SSE,147,4.9,8.5,58,0.00,,---,0.00,VWS V14.01,2013-08-30 18:25:00,
2013-08-30 14:26:00,88.2,68.9,29.88,SSW,192,10.3,13.0,53,0.00,,---,0.00,VWS V14.01,2013-08-30 18:26:00,
2013-08-30 14:30:00,88.0,69.8,29.88,SW,219,2.2,10.3,55,0.00,,---,0.00,VWS V14.01,2013-08-30 18:30:00,
2013-08-30 14:31:00,87.1,67.9,29.85,SSW,209,9.4,13.4,53,0.00,,---,0.00,VWS V14.01,2013-08-30 18:31:00,
2013-08-30 14:35:00,87.3,70.7,29.88,SSW,195,13.0,13.0,58,0.00,,---,0.00,VWS V14.01,2013-08-30 18:35:00,
2013-08-30 14:40:00,87.4,69.3,29.88,SW,215,11.2,14.3,55,0.00,,---,0.00,VWS V14.01,2013-08-30 18:40:00,
2013-08-30 14:41:00,85.8,66.7,29.85,SSW,209,12.5,14.8,53,0.00,,---,0.00,VWS V14.01,2013-08-30 18:41:00,
2013-08-30 14:45:00,88.2,70.0,29.88,South,184,8.1,14.3,55,0.00,,---,0.00,VWS V14.01,2013-08-30 18:45:00,
2013-08-30 14:50:00,88.2,68.9,29.88,SW,215,6.3,12.5,53,0.00,,---,0.00,VWS V14.01,2013-08-30 18:50:00,
2013-08-30 14:51:00,86.9,67.7,29.85,SSW,201,12.1,13.9,53,0.00,,---,0.00,VWS V14.01,2013-08-30 18:51:00,
2013-08-30 14:55:00,88.2,68.9,29.88,SSW,211,8.1,12.5,53,0.00,,---,0.00,VWS V14.01,2013-08-30 18:55:00,
2013-08-30 14:56:00,86.4,67.2,29.85,SSW,207,13.0,14.3,53,0.00,,---,0.00,VWS V14.01,2013-08-30 18:56:00,
2013-08-30 15:00:00,88.7,70.5,29.88,SSW,202,8.1,11.2,55,0.00,,---,0.00,VWS V14.01,2013-08-30 19:00:00,
2013-08-30 15:01:00,86.2,67.1,29.85,SW,235,6.3,13.4,53,0.00,,---,0.00,VWS V14.01,2013-08-30 19:01:00,
2013-08-30 15:05:00,89.2,69.3,29.88,SSE,167,4.9,13.9,52,0.00,,---,0.00,VWS V14.01,2013-08-30 19:05:00,
2013-08-30 15:06:00,86.7,67.6,29.85,SSW,209,10.3,13.0,53,0.00,,---,0.00,VWS V14.01,2013-08-30 19:06:00,
2013-08-30 15:10:00,88.3,69.1,29.88,SSW,202,7.2,13.9,53,0.00,,---,0.00,VWS V14.01,2013-08-30 19:10:00,
2013-08-30 15:11:00,86.5,67.4,29.85,SW,219,10.7,14.3,53,0.00,,---,0.00,VWS V14.01,2013-08-30 19:11:00,
2013-08-30 15:15:00,88.0,69.8,29.88,South,188,4.9,10.3,55,0.00,,---,0.00,VWS V14.01,2013-08-30 19:15:00,
2013-08-30 15:20:00,88.0,68.7,29.88,SSW,202,5.4,8.9,53,0.00,,---,0.00,VWS V14.01,2013-08-30 19:20:00,
2013-08-30 15:21:00,88.2,67.2,29.85,SW,232,7.6,10.7,50,0.00,,---,0.00,VWS V14.01,2013-08-30 19:21:00,
2013-08-30 15:25:00,88.2,68.9,29.88,SSW,192,10.3,13.0,53,0.00,,---,0.00,VWS V14.01,2013-08-30 19:25:00,
2013-08-30 15:26:00,89.4,68.3,29.85,SW,216,5.4,8.5,50,0.00,,---,0.00,VWS V14.01,2013-08-30 19:26:00,
2013-08-30 15:30:00,87.1,67.9,29.85,SSW,209,9.4,13.4,53,0.00,,---,0.00,VWS V14.01,2013-08-30 19:30:00,
2013-08-30 15:36:00,88.3,67.4,29.85,SW,228,4.9,6.7,50,0.00,,---,0.00,VWS V14.01,2013-08-30 19:36:00,
2013-08-30 15:40:00,85.8,66.7,29.85,SSW,209,12.5,14.8,53,0.00,,---,0.00,VWS V14.01,2013-08-30 19:40:00,
2013-08-30 15:45:00,86.4,67.2,29.85,SW,222,9.8,13.4,53,0.00,,---,0.00,VWS V14.01,2013-08-30 19:45:00,
2013-08-30 15:46:00,89.2,69.3,29.85,SW,221,3.1,6.3,52,0.00,,---,0.00,VWS V14.01,2013-08-30 19:46:00,
2013-08-30 15:50:00,86.9,67.7,29.85,SSW,201,12.1,13.9,53,0.00,,---,0.00,VWS V14.01,2013-08-30 19:50:00,
2013-08-30 15:51:00,88.7,67.7,29.85,SSW,208,6.7,8.9,50,0.00,,---,0.00,VWS V14.01,2013-08-30 19:51:00,
2013-08-30 15:55:00,86.4,67.2,29.85,SSW,207,13.0,14.3,53,0.00,,---,0.00,VWS V14.01,2013-08-30 19:55:00,
2013-08-30 16:00:00,86.2,67.1,29.85,SW,235,6.3,13.4,53,0.00,,---,0.00,VWS V14.01,2013-08-30 20:00:00,
2013-08-30 16:01:00,87.8,66.9,29.85,SW,229,4.0,11.2,50,0.00,,---,0.00,VWS V14.01,2013-08-30 20:01:00,
2013-08-30 16:05:00,86.7,67.6,29.85,SSW,209,10.3,13.0,53,0.00,,---,0.00,VWS V14.01,2013-08-30 20:05:00,
2013-08-30 16:06:00,86.9,66.0,29.85,SW,228,9.8,9.8,50,0.00,,---,0.00,VWS V14.01,2013-08-30 20:06:00,
2013-08-30 16:10:00,86.5,67.4,29.85,SW,219,10.7,14.3,53,0.00,,---,0.00,VWS V14.01,2013-08-30 20:10:00,
2013-08-30 16:15:00,87.1,66.2,29.85,SW,221,5.8,11.2,50,0.00,,---,0.00,VWS V14.01,2013-08-30 20:15:00,
2013-08-30 16:16:00,87.4,66.5,29.85,SW,216,8.5,12.1,50,0.00,,---,0.00,VWS V14.01,2013-08-30 20:16:00,
2013-08-30 16:20:00,88.2,67.2,29.85,SW,232,7.6,10.7,50,0.00,,---,0.00,VWS V14.01,2013-08-30 20:20:00,
2013-08-30 16:25:00,89.4,68.3,29.85,SW,216,5.4,8.5,50,0.00,,---,0.00,VWS V14.01,2013-08-30 20:25:00,
2013-08-30 16:26:00,86.2,65.9,29.85,SW,218,6.7,13.4,51,0.00,,---,0.00,VWS V14.01,2013-08-30 20:26:00,
2013-08-30 16:30:00,88.9,67.8,29.85,SW,221,0.0,7.6,50,0.00,,---,0.00,VWS V14.01,2013-08-30 20:30:00,
2013-08-30 16:31:00,85.6,65.4,29.83,SW,230,3.6,8.9,51,0.00,,---,0.00,VWS V14.01,2013-08-30 20:31:00,
2013-08-30 16:35:00,88.3,67.4,29.85,SW,228,4.9,6.7,50,0.00,,---,0.00,VWS V14.01,2013-08-30 20:35:00,
2013-08-30 16:36:00,85.5,66.4,29.83,SW,223,3.1,6.3,53,0.00,,---,0.00,VWS V14.01,2013-08-30 20:36:00,
2013-08-30 16:40:00,88.2,68.9,29.85,SW,221,4.5,6.3,53,0.00,,---,0.00,VWS V14.01,2013-08-30 20:40:00,
2013-08-30 16:41:00,84.7,66.3,29.83,SW,222,6.7,8.5,54,0.00,,---,0.00,VWS V14.01,2013-08-30 20:41:00,
2013-08-30 16:45:00,89.2,69.3,29.85,SW,221,3.1,6.3,52,0.00,,---,0.00,VWS V14.01,2013-08-30 20:45:00,
2013-08-30 16:46:00,84.4,65.9,29.83,SW,223,3.6,6.7,54,0.00,,---,0.00,VWS V14.01,2013-08-30 20:46:00,
2013-08-30 16:50:00,88.7,67.7,29.85,SSW,208,6.7,8.9,50,0.00,,---,0.00,VWS V14.01,2013-08-30 20:50:00,
2013-08-30 16:55:00,88.5,69.2,29.85,WSW,252,7.6,11.6,53,0.00,,---,0.00,VWS V14.01,2013-08-30 20:55:00,
2013-08-30 16:56:00,84.0,65.6,29.83,SW,226,3.6,6.3,54,0.00,,---,0.00,VWS V14.01,2013-08-30 20:56:00,
2013-08-30 17:00:00,87.8,66.9,29.85,SW,229,4.0,11.2,50,0.00,,---,0.00,VWS V14.01,2013-08-30 21:00:00,
2013-08-30 17:01:00,83.5,65.1,29.80,SW,226,1.3,3.6,54,0.00,,---,0.00,VWS V14.01,2013-08-30 21:01:00,
2013-08-30 17:05:00,86.9,66.0,29.85,SW,228,9.8,9.8,50,0.00,,---,0.00,VWS V14.01,2013-08-30 21:05:00,
2013-08-30 17:10:00,86.7,66.4,29.85,SW,229,6.7,10.7,51,0.00,,---,0.00,VWS V14.01,2013-08-30 21:10:00,
2013-08-30 17:11:00,81.9,67.1,29.80,SW,226,0.0,0.4,61,0.00,,---,0.00,VWS V14.01,2013-08-30 21:11:00,
2013-08-30 17:15:00,87.4,66.5,29.85,SW,216,8.5,12.1,50,0.00,,---,0.00,VWS V14.01,2013-08-30 21:15:00,
2013-08-30 17:16:00,80.6,67.3,29.83,SW,225,0.0,0.0,64,0.00,,---,0.00,VWS V14.01,2013-08-30 21:16:00,
2013-08-30 17:20:00,87.8,66.9,29.85,SW,218,10.3,10.3,50,0.00,,---,0.00,VWS V14.01,2013-08-30 21:20:00,
2013-08-30 17:25:00,86.2,65.9,29.85,SW,218,6.7,13.4,51,0.00,,---,0.00,VWS V14.01,2013-08-30 21:25:00,
2013-08-30 17:26:00,81.0,67.2,29.83,SW,226,0.0,0.0,63,0.00,,---,0.00,VWS V14.01,2013-08-30 21:26:00,
2013-08-30 17:30:00,85.6,65.4,29.83,SW,230,3.6,8.9,51,0.00,,---,0.00,VWS V14.01,2013-08-30 21:30:00,
2013-08-30 17:31:00,81.3,67.5,29.83,SW,226,0.0,0.0,63,0.00,,---,0.00,VWS V14.01,2013-08-30 21:31:00,
2013-08-30 17:35:00,85.5,66.4,29.83,SW,223,3.1,6.3,53,0.00,,---,0.00,VWS V14.01,2013-08-30 21:35:00,
2013-08-30 17:40:00,84.7,66.3,29.83,SW,222,6.7,8.5,54,0.00,,---,0.00,VWS V14.01,2013-08-30 21:40:00,
2013-08-30 17:41:00,81.3,66.6,29.83,SW,226,0.0,1.8,61,0.00,,---,0.00,VWS V14.01,2013-08-30 21:41:00,
2013-08-30 17:45:00,84.4,65.9,29.83,SW,223,3.6,6.7,54,0.00,,---,0.00,VWS V14.01,2013-08-30 21:45:00,
2013-08-30 17:46:00,81.3,66.6,29.83,SW,226,0.4,1.8,61,0.00,,---,0.00,VWS V14.01,2013-08-30 21:46:00,
2013-08-30 17:50:00,84.0,65.6,29.83,SW,225,4.9,5.8,54,0.00,,---,0.00,VWS V14.01,2013-08-30 21:50:00,
2013-08-30 17:55:00,84.0,65.6,29.83,SW,226,3.6,6.3,54,0.00,,---,0.00,VWS V14.01,2013-08-30 21:55:00,
2013-08-30 17:56:00,82.8,67.5,29.83,SW,226,0.0,4.5,60,0.00,,---,0.00,VWS V14.01,2013-08-30 21:56:00,
2013-08-30 18:00:00,83.5,65.1,29.80,SW,226,1.3,3.6,54,0.00,,---,0.00,VWS V14.01,2013-08-30 22:00:00,
2013-08-30 18:01:00,84.2,69.3,29.80,SW,226,0.0,0.4,61,0.00,,---,0.00,VWS V14.01,2013-08-30 22:01:00,
2013-08-30 18:05:00,82.8,67.0,29.80,SW,226,0.4,2.2,59,0.00,,---,0.00,VWS V14.01,2013-08-30 22:05:00,
2013-08-30 18:10:00,81.9,67.1,29.80,SW,226,0.0,0.4,61,0.00,,---,0.00,VWS V14.01,2013-08-30 22:10:00,
2013-08-30 18:11:00,85.6,69.7,29.80,SW,226,0.0,0.0,59,0.00,,---,0.00,VWS V14.01,2013-08-30 22:11:00,
2013-08-30 18:15:00,80.6,67.3,29.83,SW,225,0.0,0.0,64,0.00,,---,0.00,VWS V14.01,2013-08-30 22:15:00,
2013-08-30 18:16:00,84.2,68.3,29.80,SW,226,0.0,0.0,59,0.00,,---,0.00,VWS V14.01,2013-08-30 22:16:00,
2013-08-30 18:20:00,80.6,66.8,29.83,SW,226,0.0,0.0,63,0.00,,---,0.00,VWS V14.01,2013-08-30 22:20:00,
2013-08-30 18:25:00,81.0,67.2,29.83,SW,226,0.0,0.0,63,0.00,,---,0.00,VWS V14.01,2013-08-30 22:25:00,
2013-08-30 18:26:00,79.5,66.7,29.80,SW,226,0.0,0.0,65,0.00,,---,0.00,VWS V14.01,2013-08-30 22:26:00,
2013-08-30 18:30:00,81.3,67.5,29.83,SW,226,0.0,0.0,63,0.00,,---,0.00,VWS V14.01,2013-08-30 22:30:00,
2013-08-30 18:31:00,79.5,66.3,29.80,SW,226,0.0,0.0,64,0.00,,---,0.00,VWS V14.01,2013-08-30 22:31:00,
2013-08-30 18:35:00,81.3,66.6,29.83,SW,226,0.9,0.9,61,0.00,,---,0.00,VWS V14.01,2013-08-30 22:35:00,
2013-08-30 18:40:00,81.3,66.6,29.83,SW,226,0.0,1.8,61,0.00,,---,0.00,VWS V14.01,2013-08-30 22:40:00,
2013-08-30 18:41:00,79.9,65.7,29.80,SW,226,2.7,3.6,62,0.00,,---,0.00,VWS V14.01,2013-08-30 22:41:00,
2013-08-30 18:45:00,81.3,66.6,29.83,SW,226,0.4,1.8,61,0.00,,---,0.00,VWS V14.01,2013-08-30 22:45:00,
2013-08-30 18:46:00,79.3,65.7,29.80,SW,226,2.7,3.6,63,0.00,,---,0.00,VWS V14.01,2013-08-30 22:46:00,
2013-08-30 18:50:00,81.7,66.5,29.83,SW,226,0.0,0.4,60,0.00,,---,0.00,VWS V14.01,2013-08-30 22:50:00,
2013-08-30 18:51:00,78.1,65.8,29.80,SW,226,2.7,3.6,66,0.00,,---,0.00,VWS V14.01,2013-08-30 22:51:00,
2013-08-30 18:55:00,82.8,67.5,29.83,SW,226,0.0,4.5,60,0.00,,---,0.00,VWS V14.01,2013-08-30 22:55:00,
2013-08-30 18:56:00,76.6,66.1,29.80,SW,226,2.7,4.0,70,0.00,,---,0.00,VWS V14.01,2013-08-30 22:56:00,
2013-08-30 19:00:00,84.2,69.3,29.80,SW,226,0.0,0.4,61,0.00,,---,0.00,VWS V14.01,2013-08-30 23:00:00,
2013-08-30 19:01:00,75.9,66.2,29.80,SW,226,2.7,3.6,72,0.00,,---,0.00,VWS V14.01,2013-08-30 23:01:00,
2013-08-30 19:05:00,84.9,69.5,29.80,SW,226,0.0,0.0,60,0.00,,---,0.00,VWS V14.01,2013-08-30 23:05:00,
2013-08-30 19:10:00,85.6,69.7,29.80,SW,226,0.0,0.0,59,0.00,,---,0.00,VWS V14.01,2013-08-30 23:10:00,
2013-08-30 19:11:00,74.7,65.4,29.80,SW,226,2.2,3.6,73,0.00,,---,0.00,VWS V14.01,2013-08-30 23:11:00,
2013-08-30 19:15:00,84.2,68.3,29.80,SW,226,0.0,0.0,59,0.00,,---,0.00,VWS V14.01,2013-08-30 23:15:00,
2013-08-30 19:16:00,74.1,65.7,29.80,SW,226,1.3,3.6,75,0.00,,---,0.00,VWS V14.01,2013-08-30 23:16:00,
2013-08-30 19:20:00,80.6,65.9,29.80,SW,226,0.0,0.0,61,0.00,,---,0.00,VWS V14.01,2013-08-30 23:20:00,
2013-08-30 19:25:00,79.5,66.7,29.80,SW,226,0.0,0.0,65,0.00,,---,0.00,VWS V14.01,2013-08-30 23:25:00,
2013-08-30 19:26:00,72.7,65.4,29.80,SW,226,0.0,0.0,78,0.00,,---,0.00,VWS V14.01,2013-08-30 23:26:00,
2013-08-30 19:30:00,79.5,66.3,29.80,SW,226,0.0,0.0,64,0.00,,---,0.00,VWS V14.01,2013-08-30 23:30:00,
2013-08-30 19:31:00,71.8,64.9,29.80,SW,226,0.0,0.0,79,0.00,,---,0.00,VWS V14.01,2013-08-30 23:31:00,
2013-08-30 19:35:00,80.2,66.5,29.80,SW,225,3.1,3.1,63,0.00,,---,0.00,VWS V14.01,2013-08-30 23:35:00,
2013-08-30 19:36:00,72.0,64.7,29.80,SW,226,0.0,0.0,78,0.00,,---,0.00,VWS V14.01,2013-08-30 23:36:00,
2013-08-30 19:40:00,79.9,65.7,29.80,SW,226,2.7,3.6,62,0.00,,---,0.00,VWS V14.01,2013-08-30 23:40:00,
2013-08-30 19:45:00,79.3,65.7,29.80,SW,226,2.7,3.6,63,0.00,,---,0.00,VWS V14.01,2013-08-30 23:45:00,
2013-08-30 19:50:00,78.1,65.8,29.80,SW,226,2.7,3.6,66,0.00,,---,0.00,VWS V14.01,2013-08-30 23:50:00,
2013-08-30 19:55:00,76.6,66.1,29.80,SW,226,2.7,4.0,70,0.00,,---,0.00,VWS V14.01,2013-08-30 23:55:00,
2013-08-30 19:56:00,70.7,64.6,29.80,SW,226,0.0,0.0,81,0.00,,---,0.00,VWS V14.01,2013-08-30 23:56:00,
2013-08-30 20:00:00,75.9,66.2,29.80,SW,226,2.7,3.6,72,0.00,,---,0.00,VWS V14.01,2013-08-31 00:00:00,
2013-08-30 20:01:00,70.3,64.9,29.80,SW,226,0.0,0.0,83,0.00,,---,0.00,VWS V14.01,2013-08-31 00:01:00,
2013-08-30 20:05:00,75.2,66.0,29.80,SW,226,2.7,3.1,73,0.00,,---,0.00,VWS V14.01,2013-08-31 00:05:00,
2013-08-30 20:10:00,74.7,65.4,29.80,SW,226,2.2,3.6,73,0.00,,---,0.00,VWS V14.01,2013-08-31 00:10:00,
2013-08-30 20:11:00,70.3,65.3,29.80,SW,226,0.0,0.0,84,0.00,,---,0.00,VWS V14.01,2013-08-31 00:11:00,
2013-08-30 20:15:00,74.1,65.7,29.80,SW,226,1.3,3.6,75,0.00,,---,0.00,VWS V14.01,2013-08-31 00:15:00,
2013-08-30 20:16:00,70.2,65.4,29.80,SW,226,0.0,0.0,85,0.00,,---,0.00,VWS V14.01,2013-08-31 00:16:00,
2013-08-30 20:20:00,73.6,65.6,29.80,SW,226,0.0,1.8,76,0.00,,---,0.00,VWS V14.01,2013-08-31 00:20:00,
2013-08-30 20:21:00,70.3,66.0,29.80,SW,226,0.0,0.0,86,0.00,,---,0.00,VWS V14.01,2013-08-31 00:21:00,
2013-08-30 20:25:00,72.7,65.4,29.80,SW,226,0.0,0.0,78,0.00,,---,0.00,VWS V14.01,2013-08-31 00:25:00,
2013-08-30 20:26:00,70.2,65.4,29.80,SW,226,3.1,4.0,85,0.00,,---,0.00,VWS V14.01,2013-08-31 00:26:00,
2013-08-30 20:30:00,71.8,64.9,29.80,SW,226,0.0,0.0,79,0.00,,---,0.00,VWS V14.01,2013-08-31 00:30:00,
2013-08-30 20:35:00,72.0,64.7,29.80,SW,226,0.0,0.0,78,0.00,,---,0.00,VWS V14.01,2013-08-31 00:35:00,
2013-08-30 20:36:00,69.6,65.6,29.80,SW,226,1.8,3.1,87,0.00,,---,0.00,VWS V14.01,2013-08-31 00:36:00,
2013-08-30 20:40:00,72.1,64.5,29.80,SW,226,3.6,4.0,77,0.00,,---,0.00,VWS V14.01,2013-08-31 00:40:00,
2013-08-30 20:41:00,69.3,65.6,29.80,SW,226,2.7,3.6,88,0.00,,---,0.00,VWS V14.01,2013-08-31 00:41:00,
2013-08-30 20:45:00,72.3,64.7,29.80,SW,226,1.3,3.6,77,0.00,,---,0.00,VWS V14.01,2013-08-31 00:45:00,
2013-08-30 20:46:00,69.1,66.0,29.80,SW,226,2.2,4.0,90,0.00,,---,0.00,VWS V14.01,2013-08-31 00:46:00,
2013-08-30 20:50:00,71.6,64.4,29.80,SW,226,0.0,2.2,78,0.00,,---,0.00,VWS V14.01,2013-08-31 00:50:00,
2013-08-30 20:55:00,70.7,64.6,29.80,SW,226,0.0,0.0,81,0.00,,---,0.00,VWS V14.01,2013-08-31 00:55:00,
2013-08-30 20:56:00,68.9,66.5,29.80,SW,226,1.8,4.0,92,0.00,,---,0.00,VWS V14.01,2013-08-31 00:56:00,
2013-08-30 21:00:00,70.3,64.9,29.80,SW,226,0.0,0.0,83,0.00,,---,0.00,VWS V14.01,2013-08-31 01:00:00,
2013-08-30 21:01:00,69.4,66.7,29.80,SW,226,4.0,4.5,91,0.00,,---,0.00,VWS V14.01,2013-08-31 01:01:00,
2013-08-30 21:05:00,70.2,65.1,29.80,SW,226,0.0,0.4,84,0.00,,---,0.00,VWS V14.01,2013-08-31 01:05:00,
2013-08-30 21:06:00,69.8,66.4,29.80,SW,226,3.1,4.0,89,0.00,,---,0.00,VWS V14.01,2013-08-31 01:06:00,
2013-08-30 21:10:00,70.3,65.3,29.80,SW,226,0.0,0.0,84,0.00,,---,0.00,VWS V14.01,2013-08-31 01:10:00,
2013-08-30 21:11:00,70.2,66.4,29.80,SW,222,0.0,4.0,88,0.00,,---,0.00,VWS V14.01,2013-08-31 01:11:00,
2013-08-30 21:15:00,70.2,65.4,29.80,SW,226,0.0,0.0,85,0.00,,---,0.00,VWS V14.01,2013-08-31 01:15:00,
2013-08-30 21:16:00,70.3,66.3,29.80,SW,225,1.8,3.6,87,0.00,,---,0.00,VWS V14.01,2013-08-31 01:16:00,
2013-08-30 21:20:00,70.3,66.0,29.80,SW,226,0.0,0.0,86,0.00,,---,0.00,VWS V14.01,2013-08-31 01:20:00,
2013-08-30 21:25:00,70.2,65.4,29.80,SW,226,3.1,4.0,85,0.00,,---,0.00,VWS V14.01,2013-08-31 01:25:00,
2013-08-30 21:26:00,70.7,66.0,29.80,SW,226,1.3,3.6,85,0.00,,---,0.00,VWS V14.01,2013-08-31 01:26:00,
2013-08-30 21:30:00,69.8,65.4,29.80,SW,226,3.1,3.6,86,0.00,,---,0.00,VWS V14.01,2013-08-31 01:30:00,
2013-08-30 21:31:00,70.5,65.8,29.80,SW,226,0.0,2.2,85,0.00,,---,0.00,VWS V14.01,2013-08-31 01:31:00,
2013-08-30 21:35:00,69.6,65.6,29.80,SW,226,1.8,3.1,87,0.00,,---,0.00,VWS V14.01,2013-08-31 01:35:00,
2013-08-30 21:40:00,69.3,65.6,29.80,SW,226,2.7,3.6,88,0.00,,---,0.00,VWS V14.01,2013-08-31 01:40:00,
2013-08-30 21:41:00,70.7,66.7,29.80,SW,226,0.0,0.0,87,0.00,,---,0.00,VWS V14.01,2013-08-31 01:41:00,
2013-08-30 21:45:00,69.1,66.0,29.80,SW,226,2.2,4.0,90,0.00,,---,0.00,VWS V14.01,2013-08-31 01:45:00,
2013-08-30 21:46:00,70.5,66.8,29.80,SW,226,0.0,0.0,88,0.00,,---,0.00,VWS V14.01,2013-08-31 01:46:00,
2013-08-30 21:50:00,69.1,66.3,29.80,SW,226,2.2,4.5,91,0.00,,---,0.00,VWS V14.01,2013-08-31 01:50:00,
2013-08-30 21:51:00,70.5,67.4,29.80,SW,226,0.0,0.0,90,0.00,,---,0.00,VWS V14.01,2013-08-31 01:51:00,
2013-08-30 21:55:00,68.9,66.5,29.80,SW,226,1.8,4.0,92,0.00,,---,0.00,VWS V14.01,2013-08-31 01:55:00,
2013-08-30 22:00:00,69.4,66.7,29.80,SW,226,4.0,4.5,91,0.00,,---,0.00,VWS V14.01,2013-08-31 02:00:00,
2013-08-30 22:01:00,70.0,66.9,29.77,SW,226,0.0,0.0,90,0.00,,---,0.00,VWS V14.01,2013-08-31 02:01:00,
2013-08-30 22:05:00,69.8,66.4,29.80,SW,226,3.1,4.0,89,0.00,,---,0.00,VWS V14.01,2013-08-31 02:05:00,
2013-08-30 22:10:00,70.2,66.4,29.80,SW,222,0.0,4.0,88,0.00,,---,0.00,VWS V14.01,2013-08-31 02:10:00,
2013-08-30 22:11:00,70.0,66.9,29.77,SW,215,3.6,5.4,90,0.00,,---,0.00,VWS V14.01,2013-08-31 02:11:00,
2013-08-30 22:15:00,70.3,66.3,29.80,SW,225,1.8,3.6,87,0.00,,---,0.00,VWS V14.01,2013-08-31 02:15:00,
2013-08-30 22:16:00,70.0,66.9,29.77,SSW,197,5.4,6.3,90,0.00,,---,0.00,VWS V14.01,2013-08-31 02:16:00,
2013-08-30 22:20:00,70.3,66.0,29.80,SW,226,1.3,2.7,86,0.00,,---,0.00,VWS V14.01,2013-08-31 02:20:00,
2013-08-30 22:25:00,70.7,66.0,29.80,SW,226,1.3,3.6,85,0.00,,---,0.00,VWS V14.01,2013-08-31 02:25:00,
2013-08-30 22:26:00,70.5,66.5,29.77,SSW,197,2.7,4.5,87,0.00,,---,0.00,VWS V14.01,2013-08-31 02:26:00,
2013-08-30 22:30:00,70.5,65.8,29.80,SW,226,0.0,2.2,85,0.00,,---,0.00,VWS V14.01,2013-08-31 02:30:00,
2013-08-30 22:31:00,70.5,66.5,29.77,SSW,197,0.0,2.7,87,0.00,,---,0.00,VWS V14.01,2013-08-31 02:31:00,
2013-08-30 22:35:00,70.5,66.1,29.80,SW,226,0.0,0.0,86,0.00,,---,0.00,VWS V14.01,2013-08-31 02:35:00,
2013-08-30 22:40:00,70.7,66.7,29.80,SW,226,0.0,0.0,87,0.00,,---,0.00,VWS V14.01,2013-08-31 02:40:00,
2013-08-30 22:41:00,70.3,66.9,29.77,SSW,197,0.0,0.0,89,0.00,,---,0.00,VWS V14.01,2013-08-31 02:41:00,
2013-08-30 22:45:00,70.5,66.8,29.80,SW,226,0.0,0.0,88,0.00,,---,0.00,VWS V14.01,2013-08-31 02:45:00,
2013-08-30 22:46:00,70.2,66.8,29.77,SSW,197,0.0,0.0,89,0.00,,---,0.00,VWS V14.01,2013-08-31 02:46:00,
2013-08-30 22:50:00,70.5,67.4,29.80,SW,226,0.0,0.0,90,0.00,,---,0.00,VWS V14.01,2013-08-31 02:50:00,
2013-08-30 22:55:00,70.3,67.6,29.80,SW,226,0.0,0.0,91,0.00,,---,0.00,VWS V14.01,2013-08-31 02:55:00,
2013-08-30 22:56:00,69.6,67.5,29.77,SSW,197,0.0,0.0,93,0.00,,---,0.00,VWS V14.01,2013-08-31 02:56:00,
2013-08-30 23:00:00,70.0,66.9,29.77,SW,226,0.0,0.0,90,0.00,,---,0.00,VWS V14.01,2013-08-31 03:00:00,
2013-08-30 23:01:00,69.4,68.6,29.77,SSW,197,0.0,0.0,97,0.00,,---,0.00,VWS V14.01,2013-08-31 03:01:00,
2013-08-30 23:05:00,69.8,66.7,29.77,SW,226,0.0,0.4,90,0.00,,---,0.00,VWS V14.01,2013-08-31 03:05:00,
2013-08-30 23:10:00,70.0,66.9,29.77,SW,215,3.6,5.4,90,0.00,,---,0.00,VWS V14.01,2013-08-31 03:10:00,
2013-08-30 23:11:00,69.4,69.2,29.77,SSW,197,0.0,0.0,99,0.00,,---,0.00,VWS V14.01,2013-08-31 03:11:00,
2013-08-30 23:15:00,70.0,66.9,29.77,SSW,197,5.4,6.3,90,0.00,,---,0.00,VWS V14.01,2013-08-31 03:15:00,
2013-08-30 23:16:00,69.4,69.4,29.77,SSW,197,2.2,3.6,100,0.00,,---,0.00,VWS V14.01,2013-08-31 03:16:00,
2013-08-30 23:20:00,70.2,66.8,29.77,SSW,197,2.7,5.8,89,0.00,,---,0.00,VWS V14.01,2013-08-31 03:20:00,
2013-08-30 23:25:00,70.5,66.5,29.77,SSW,197,2.7,4.5,87,0.00,,---,0.00,VWS V14.01,2013-08-31 03:25:00,
2013-08-30 23:26:00,70.3,70.3,29.77,SSW,204,4.9,5.8,100,0.00,,---,0.00,VWS V14.01,2013-08-31 03:26:00,
2013-08-30 23:30:00,70.5,66.5,29.77,SSW,197,0.0,2.7,87,0.00,,---,0.00,VWS V14.01,2013-08-31 03:30:00,
2013-08-30 23:31:00,70.3,70.3,29.77,SSW,212,3.1,6.7,100,0.00,,---,0.00,VWS V14.01,2013-08-31 03:31:00,
2013-08-30 23:35:00,70.5,66.8,29.77,SSW,197,0.0,0.0,88,0.00,,---,0.00,VWS V14.01,2013-08-31 03:35:00,
2013-08-30 23:40:00,70.3,66.9,29.77,SSW,197,0.0,0.0,89,0.00,,---,0.00,VWS V14.01,2013-08-31 03:40:00,
2013-08-30 23:41:00,69.8,69.8,29.77,SSW,212,4.9,5.8,100,0.00,,---,0.00,VWS V14.01,2013-08-31 03:41:00,
2013-08-30 23:45:00,70.2,66.8,29.77,SSW,197,0.0,0.0,89,0.00,,---,0.00,VWS V14.01,2013-08-31 03:45:00,
2013-08-30 23:46:00,69.6,69.6,29.77,SSW,212,4.9,4.9,100,0.00,,---,0.00,VWS V14.01,2013-08-31 03:46:00,
2013-08-30 23:50:00,70.0,66.9,29.77,SSW,197,0.0,0.0,90,0.00,,---,0.00,VWS V14.01,2013-08-31 03:50:00,
2013-08-30 23:55:00,69.6,67.5,29.77,SSW,197,0.0,0.0,93,0.00,,---,0.00,VWS V14.01,2013-08-31 03:55:00,
2013-08-30 23:56:00,69.3,69.3,29.77,SSW,212,3.6,4.5,100,0.00,,---,0.00,VWS V14.01,2013-08-31 03:56:00,